WetterOnline ( https://www.wetteronline.de )

Wetter aktuell Soest

Aktuelles Wetter: Werl (84m)

6-stündlich | Neueste Meldungen
Ortszeit Temperatur Wetter
Mi, 06.07. 20:00 18.7° C bewölkt
Mi, 06.07. 14:00 19.1° C bewölkt
Mi, 06.07. 8:00 14.1° C fast wolkenlos
Mi, 06.07. 2:00 12.6° C wolkig
Di, 05.07. 20:00 19.7° C bewölkt
Sa, 02.07. 8:00 16.4° C wolkenlos
Sa, 02.07. 2:00 11.5° C wolkenlos
Fr, 01.07. 20:00 20.7° C leicht bewölkt
Ortszeit Temperatur Wetter
Do, 07.07. 0:30 16.6° C bedeckt
Do, 07.07. 0:10 16.5° C bedeckt
Do, 07.07. 0:00 16.4° C bedeckt
Mi, 06.07. 23:50 16.4° C bedeckt
Mi, 06.07. 23:40 16.4° C bedeckt
Mi, 06.07. 23:30 16.4° C bedeckt
Mi, 06.07. 23:00 16.7° C bedeckt
Mi, 06.07. 22:30 16.5° C bedeckt
Mi, 06.07. 22:00 17.2° C bedeckt
Mi, 06.07. 21:30 17.4° C leichter Regen
Ortszeit Relative Feuchte Sichtweite
Mi, 06.07. 20:00 54% 65 km
Mi, 06.07. 14:00 49% 55 km
Mi, 06.07. 8:00 75% 45 km
Mi, 06.07. 2:00 84% 50 km
Di, 05.07. 20:00 57% 60 km
Sa, 02.07. 8:00 68% 55 km
Sa, 02.07. 2:00 87% 45 km
Fr, 01.07. 20:00 49% 60 km
Ortszeit Relative Feuchte Sichtweite
Do, 07.07. 0:30 67% >70 km
Do, 07.07. 0:10 69% -
Do, 07.07. 0:00 71% 55 km
Mi, 06.07. 23:50 71% -
Mi, 06.07. 23:40 72% -
Mi, 06.07. 23:30 73% 55 km
Mi, 06.07. 23:00 71% >70 km
Mi, 06.07. 22:30 69% 65 km
Mi, 06.07. 22:00 63% 65 km
Mi, 06.07. 21:30 63% 50 km
Ortszeit Niederschlagsmenge Niederschlagsart
Mi, 06.07. 20:00 0.0 l/m2 in 12 Std. -
Mi, 06.07. 14:00 0.0 l/m2 in 6 Std. -
Mi, 06.07. 8:00 0.0 l/m2 in 12 Std. -
Mi, 06.07. 2:00 0.0 l/m2 in 6 Std. -
Di, 05.07. 20:00 0.0 l/m2 in 3 Std. -
Sa, 02.07. 8:00 0.0 l/m2 in 12 Std. -
Sa, 02.07. 2:00 0.0 l/m2 in 6 Std. -
Fr, 01.07. 20:00 0.1 l/m2 in 12 Std. -
Ortszeit Niederschlagsmenge Niederschlagsart
Do, 07.07. 0:30 0.1 l/m2 in 1 Std. Schneeregen
Do, 07.07. 0:10 keine Meldung -
Do, 07.07. 0:00 0.0 l/m2 in 1 Std. -
Mi, 06.07. 23:50 keine Meldung -
Mi, 06.07. 23:40 keine Meldung -
Mi, 06.07. 23:30 0.0 l/m2 in 1 Std. -
Mi, 06.07. 23:00 0.1 l/m2 in 1 Std. Regen
Mi, 06.07. 22:30 0.1 l/m2 in 1 Std. Schneeregen
Mi, 06.07. 22:00 0.1 l/m2 in 1 Std. Regen
Mi, 06.07. 21:30 0.1 l/m2 in 1 Std. -
Ortszeit Stärke Spitze Richtung
km/h Bft. km/h Grad Sektor
Mi, 06.07. 20:00 11 2 29 260° W
Mi, 06.07. 14:00 9 2 22 290° W
Mi, 06.07. 8:00 7 2 14 240° SW
Mi, 06.07. 2:00 7 2 25 280° W
Di, 05.07. 20:00 13 3 28 310° NW
Sa, 02.07. 8:00 6 1 11 190° S
Sa, 02.07. 2:00 7 2 22 190° S
Fr, 01.07. 20:00 9 2 28 240° SW
Ortszeit Stärke Spitze Richtung
km/h Bft. km/h Grad Sektor
Do, 07.07. 0:30 9 2 11 220° SW
Do, 07.07. 0:10 7 2 - 220° SW
Do, 07.07. 0:00 7 2 7 220° SW
Mi, 06.07. 23:50 7 2 - 220° SW
Mi, 06.07. 23:40 7 2 - 220° SW
Mi, 06.07. 23:30 6 1 7 210° SW
Mi, 06.07. 23:00 4 1 18 230° SW
Mi, 06.07. 22:30 7 2 17 280° W
Mi, 06.07. 22:00 14 3 25 280° W
Mi, 06.07. 21:30 9 2 15 270° W
Ortszeit Untergrenze Bedeckung Gattung
total tief tief mittel hoch
Mi, 06.07. 20:00 1800 m 8/8 7/8 - - -
Mi, 06.07. 14:00 1500 m 7/8 7/8 - - -
Mi, 06.07. 8:00 1500 m 1/8 1/8 - - -
Mi, 06.07. 2:00 1170 m 5/8 5/8 - - -
Di, 05.07. 20:00 1500 m 7/8 7/8 - - -
Sa, 02.07. 8:00 - 0/8 0/8 - - -
Sa, 02.07. 2:00 - 0/8 0/8 - - -
Fr, 01.07. 20:00 1500 m 4/8 4/8 - - -
Ortszeit Bedeckungsgrad in Achtel und Wolkenuntergrenze
Do, 07.07. 0:30 6(1230m) 7(1500m) 8(2100m)
Do, 07.07. 0:10 8
Do, 07.07. 0:00 8(1290m) 8(2100m)
Mi, 06.07. 23:50 8(1290m) 8(2100m)
Mi, 06.07. 23:40 8
Mi, 06.07. 23:30 8(1350m) 8(2400m) 8(5700m)
Mi, 06.07. 23:00 8(1380m) 8(3300m)
Mi, 06.07. 22:30 7(1470m) 7(2100m) 8(2700m)
Mi, 06.07. 22:00 7(1500m) 7(1800m) 8(2700m)
Mi, 06.07. 21:30 8(1500m) 8(2100m)
Ortszeit Luftdruck NN (hPa) Tendenz (hPa in 3 Std.)
Mi, 06.07. 20:00 1023 - 1,2
Mi, 06.07. 14:00 1025 - 0,4
Mi, 06.07. 8:00 1025 + 0,5
Mi, 06.07. 2:00 1025 + 1,1
Di, 05.07. 20:00 1022 + 0,4
Sa, 02.07. 8:00 1023 + 0,6
Sa, 02.07. 2:00 1023 + 1,1
Fr, 01.07. 20:00 1019 + 0,7
Ortszeit Luftdruck NN (hPa) Tendenz (hPa in 3 Std.)
Do, 07.07. 0:30 1022 - 0,9
Do, 07.07. 0:10 1022 keine Meldung
Do, 07.07. 0:00 1022 - 0,7
Mi, 06.07. 23:50 1022 keine Meldung
Mi, 06.07. 23:40 1022 keine Meldung
Mi, 06.07. 23:30 1022 - 0,5
Mi, 06.07. 23:00 1022 - 0,6
Mi, 06.07. 22:30 1023 - 0,4
Mi, 06.07. 22:00 1023 - 0,5
Mi, 06.07. 21:30 1022 - 0,9
Ortszeit Schneehöhe (cm)
Mi, 06.07. 20:00 0
Mi, 06.07. 14:00 0
Mi, 06.07. 8:00 0
Mi, 06.07. 2:00 0
Di, 05.07. 20:00 0
Sa, 02.07. 8:00 0
Sa, 02.07. 2:00 0
Fr, 01.07. 20:00 0
Ortszeit Schneehöhe (cm)
Do, 07.07. 0:30 0
Do, 07.07. 0:10 0
Do, 07.07. 0:00 0
Mi, 06.07. 23:50 0
Mi, 06.07. 23:40 0
Mi, 06.07. 23:30 0
Mi, 06.07. 23:00 0
Mi, 06.07. 22:30 0
Mi, 06.07. 22:00 0
Mi, 06.07. 21:30 0
Link zu dieser Seite / Seite empfehlen

Das Wetter in ...